Terminal Aerodrome Forecast
Issued by NWS

Home | Current Version | Previous Version | Text Only | Print | Product List | Glossary On
Versions: 1 2 3 4 5 6 7 8 9 10 11 12 13 14 15 16 17 18 19 20 21 22 23 24 25 26 27
000
FTUS46 KLOX 060300 AAA
TAFLAX
TAF AMD
KLAX 060308Z 0603/0706 26010KT P6SM SKC
     FM060500 VRB03KT P6SM SKC
     FM061000 05005KT P6SM SKC
     FM062000 27011KT P6SM SKC=

USA.gov is the U.S. government's official web portal to all federal, state and local government web resources and services.